Time;durP1;ratioP1;P1;durP2;ratioP2;P2;SDS_P1;SDS_P2;PMS_P1;PMS_P2;Temp;Humidity;BMP_temperature;BMP_pressure;BME280_temperature;BME280_humidity;BME280_pressure;Samples;Min_cycle;Max_cycle;Signal;HPM_P1;HPM_P2
2024/03/15 00:00:44;;;;;;;10.57;6.90;;;;;;;11.72;100.00;101715.06;4949900;28;21074;-69
2024/03/15 00:03:10;;;;;;;12.47;7.10;;;;;;;11.97;100.00;101770.25;4950869;28;21027;-69
2024/03/15 00:05:37;;;;;;;11.20;6.53;;;;;;;11.72;100.00;101713.22;4950733;28;20261;-69
2024/03/15 00:08:02;;;;;;;13.63;6.30;;;;;;;11.28;100.00;101656.75;4952946;28;20840;-69
2024/03/15 00:10:28;;;;;;;11.00;6.03;;;;;;;11.49;100.00;101674.84;4935314;28;20475;-69
2024/03/15 00:12:53;;;;;;;12.80;6.50;;;;;;;11.93;100.00;101763.56;4953825;28;20676;-69
2024/03/15 00:15:19;;;;;;;11.13;6.47;;;;;;;11.75;100.00;101730.81;4951228;28;20712;-69
2024/03/15 00:17:44;;;;;;;12.20;6.50;;;;;;;11.98;100.00;101752.28;4953987;28;20274;-69
2024/03/15 00:20:11;;;;;;;11.20;5.63;;;;;;;12.03;100.00;101770.53;4931777;28;20201;-70
2024/03/15 00:22:37;;;;;;;11.87;6.53;;;;;;;11.27;100.00;101650.53;4948939;28;20273;-69
2024/03/15 00:25:02;;;;;;;9.87;5.90;;;;;;;11.80;100.00;101735.63;4954427;28;20525;-69
2024/03/15 00:27:28;;;;;;;11.30;6.07;;;;;;;11.94;100.00;101778.69;4951902;28;20242;-69
2024/03/15 00:29:53;;;;;;;9.03;5.90;;;;;;;11.78;100.00;101727.78;4932588;28;20198;-69
2024/03/15 00:32:19;;;;;;;10.33;5.80;;;;;;;12.10;100.00;101758.03;4953405;28;20218;-69
2024/03/15 00:34:44;;;;;;;12.83;7.10;;;;;;;12.01;100.00;101769.91;4948315;28;20890;-69
2024/03/15 00:37:10;;;;;;;9.40;5.50;;;;;;;11.74;100.00;101704.94;4950936;28;20186;-69
2024/03/15 00:39:35;;;;;;;11.93;6.40;;;;;;;12.01;100.00;101759.16;4937919;28;20182;-69
2024/03/15 00:42:02;;;;;;;10.13;6.17;;;;;;;11.36;100.00;101653.97;4952409;28;20210;-69
2024/03/15 00:44:31;;;;;;;11.57;7.00;;;;;;;12.01;100.00;101741.16;4950716;28;20187;-69
2024/03/15 00:46:57;;;;;;;13.00;6.77;;;;;;;11.42;100.00;101665.84;4949989;28;20446;-69
2024/03/15 00:49:22;;;;;;;9.47;5.63;;;;;;;12.01;100.00;101745.69;4934593;28;20478;-69
2024/03/15 00:51:48;;;;;;;9.87;5.87;;;;;;;11.57;100.00;101680.13;4950637;28;20561;-69
2024/03/15 00:54:14;;;;;;;12.83;5.40;;;;;;;11.99;100.00;101737.81;4936577;28;20214;-69
2024/03/15 00:56:40;;;;;;;9.60;5.30;;;;;;;11.99;100.00;101738.63;4936802;28;20437;-69
2024/03/15 00:59:08;;;;;;;11.80;6.70;;;;;;;11.62;100.00;101672.34;4949830;28;20182;-69
2024/03/15 01:01:35;;;;;;;9.80;5.43;;;;;;;11.69;100.00;101700.16;4932053;28;20297;-68
2024/03/15 01:04:01;;;;;;;13.30;5.73;;;;;;;11.72;100.00;101685.50;4952728;28;20838;-69
2024/03/15 01:06:27;;;;;;;11.90;5.83;;;;;;;11.87;100.00;101720.47;4950969;28;20457;-69
2024/03/15 01:08:52;;;;;;;10.27;6.30;;;;;;;11.89;100.00;101711.22;4935245;28;20195;-69
2024/03/15 01:11:18;;;;;;;10.43;5.60;;;;;;;11.87;100.00;101715.94;4951413;28;20462;-69
2024/03/15 01:13:43;;;;;;;10.80;6.63;;;;;;;11.38;100.00;101641.22;4950698;28;20198;-69
2024/03/15 01:16:11;;;;;;;13.10;5.93;;;;;;;11.71;100.00;101699.94;4933941;28;20182;-69
2024/03/15 01:18:37;;;;;;;9.60;5.53;;;;;;;11.44;100.00;101632.41;4951186;28;20800;-69
2024/03/15 01:21:02;;;;;;;10.90;5.43;;;;;;;11.73;100.00;101700.59;4928774;28;20472;-69
2024/03/15 01:23:28;;;;;;;11.90;6.37;;;;;;;11.32;100.00;101650.00;4948666;28;20186;-69
2024/03/15 01:25:53;;;;;;;12.40;6.87;;;;;;;11.65;100.00;101682.72;4955054;28;20565;-69
2024/03/15 01:28:18;;;;;;;11.47;6.03;;;;;;;11.77;100.00;101702.75;4936140;28;20196;-71
2024/03/15 01:30:45;;;;;;;14.20;6.27;;;;;;;11.72;100.00;101704.31;4948160;28;20211;-69
2024/03/15 01:33:10;;;;;;;10.20;5.90;;;;;;;10.55;100.00;101521.41;4951668;28;20190;-69
2024/03/15 01:35:36;;;;;;;10.30;6.00;;;;;;;10.99;100.00;101588.59;4951691;28;20485;-69
2024/03/15 01:38:05;;;;;;;9.87;6.07;;;;;;;11.52;100.00;101682.53;4953095;28;20187;-69
2024/03/15 01:40:31;;;;;;;11.10;5.63;;;;;;;10.90;100.00;101584.28;4939126;28;20583;-69
2024/03/15 01:42:56;;;;;;;9.93;6.00;;;;;;;11.75;100.00;101733.50;4934214;28;20490;-69
2024/03/15 01:45:22;;;;;;;12.20;6.50;;;;;;;11.62;100.00;101701.06;4934924;28;20195;-69
2024/03/15 01:47:49;;;;;;;9.50;5.23;;;;;;;11.46;100.00;101678.72;4933902;28;20193;-69
2024/03/15 01:50:15;;;;;;;11.20;5.83;;;;;;;11.47;100.00;101701.88;4949970;28;20563;-69
2024/03/15 01:52:44;;;;;;;11.00;6.00;;;;;;;11.49;100.00;101699.03;4947356;28;20454;-69
2024/03/15 01:55:10;;;;;;;11.83;5.90;;;;;;;11.54;100.00;101710.88;4949091;28;20530;-69
2024/03/15 01:57:36;;;;;;;11.50;5.47;;;;;;;11.67;100.00;101736.28;4931246;28;20971;-69
2024/03/15 02:00:05;;;;;;;9.90;5.73;;;;;;;11.58;100.00;101707.84;4953370;28;20386;-69
2024/03/15 02:02:33;;;;;;;14.53;5.40;;;;;;;11.67;100.00;101730.91;4949521;28;20455;-69
2024/03/15 02:04:58;;;;;;;10.30;5.80;;;;;;;11.46;100.00;101704.75;4950474;28;20461;-69
2024/03/15 02:07:27;;;;;;;10.73;5.37;;;;;;;11.43;100.00;101710.50;4948874;28;20449;-70
2024/03/15 02:09:53;;;;;;;11.07;5.80;;;;;;;11.75;100.00;101795.34;4950690;28;20190;-69
2024/03/15 02:12:19;;;;;;;9.77;5.73;;;;;;;11.27;100.00;101685.47;4933467;28;20903;-69
2024/03/15 02:14:44;;;;;;;8.90;4.77;;;;;;;11.52;100.00;101734.41;4929545;28;20494;-69
2024/03/15 02:17:09;;;;;;;10.50;5.50;;;;;;;11.28;100.00;101688.97;4947886;28;20190;-69
2024/03/15 02:19:35;;;;;;;9.83;5.50;;;;;;;11.08;100.00;101651.91;4937056;28;20187;-69
2024/03/15 02:22:00;;;;;;;10.60;5.33;;;;;;;11.31;100.00;101686.78;4949247;28;20323;-69
2024/03/15 02:24:27;;;;;;;9.40;5.23;;;;;;;11.36;100.00;101701.50;4947992;28;20321;-69
2024/03/15 02:26:52;;;;;;;11.67;5.80;;;;;;;10.84;100.00;101620.75;4946665;28;20449;-69
2024/03/15 02:29:18;;;;;;;9.77;6.00;;;;;;;11.44;100.00;101729.13;4951434;28;20191;-69
2024/03/15 02:31:46;;;;;;;11.47;5.87;;;;;;;11.15;100.00;101664.59;4947627;28;20920;-69
2024/03/15 02:34:13;;;;;;;9.40;5.43;;;;;;;11.56;100.00;101724.13;4933134;28;20213;-69
2024/03/15 02:36:40;;;;;;;10.03;5.60;;;;;;;11.17;100.00;101651.84;4933960;28;20488;-69
2024/03/15 02:39:07;;;;;;;12.13;5.53;;;;;;;11.31;100.00;101677.84;4949334;28;20453;-69
2024/03/15 02:41:33;;;;;;;10.20;5.60;;;;;;;10.99;100.00;101606.53;4948303;28;20989;-69
2024/03/15 02:43:59;;;;;;;10.07;5.70;;;;;;;11.38;100.00;101670.75;4936917;28;20434;-69
2024/03/15 02:46:25;;;;;;;8.83;5.03;;;;;;;11.38;100.00;101661.88;4948118;28;20439;-69
2024/03/15 02:48:51;;;;;;;12.40;5.77;;;;;;;11.62;100.00;101680.38;4932286;28;20445;-69
2024/03/15 02:51:16;;;;;;;11.20;5.70;;;;;;;11.11;100.00;101612.28;4934744;28;20213;-69
2024/03/15 02:53:43;;;;;;;12.77;5.93;;;;;;;11.53;100.00;101668.91;4949615;28;20186;-69
2024/03/15 02:56:09;;;;;;;12.50;5.40;;;;;;;11.06;100.00;101602.94;4942160;28;20179;-69
2024/03/15 02:58:35;;;;;;;12.53;5.67;;;;;;;10.99;100.00;101585.03;4947812;28;20828;-69
2024/03/15 03:01:01;;;;;;;11.57;6.13;;;;;;;11.51;100.00;101667.41;4931958;28;20473;-69
2024/03/15 03:03:26;;;;;;;10.73;5.73;;;;;;;10.84;100.00;101596.59;4950082;28;20473;-69
2024/03/15 03:05:52;;;;;;;8.60;5.00;;;;;;;11.27;100.00;101637.13;4948571;28;20645;-70
2024/03/15 03:08:18;;;;;;;9.40;5.53;;;;;;;11.39;100.00;101642.03;4932704;28;20560;-69
2024/03/15 03:10:44;;;;;;;12.43;5.80;;;;;;;11.26;100.00;101632.78;4936302;28;20218;-69
2024/03/15 03:13:09;;;;;;;9.13;5.40;;;;;;;11.51;100.00;101665.59;4949855;28;20446;-70
2024/03/15 03:15:35;;;;;;;11.70;6.23;;;;;;;11.48;100.00;101657.88;4950225;28;20831;-69
2024/03/15 03:18:01;;;;;;;9.30;5.90;;;;;;;11.50;100.00;101646.94;4950624;28;20197;-69
2024/03/15 03:20:35;;;;;;;9.43;5.70;;;;;;;11.48;100.00;101649.81;4949265;28;20194;-69
2024/03/15 03:23:02;;;;;;;9.70;5.80;;;;;;;11.25;100.00;101612.31;4951585;28;20442;-69
2024/03/15 03:25:27;;;;;;;12.07;6.13;;;;;;;11.31;100.00;101640.25;4931299;28;20446;-69
2024/03/15 03:27:53;;;;;;;11.50;6.57;;;;;;;11.31;100.00;101645.63;4933396;28;20504;-69
2024/03/15 03:30:18;;;;;;;10.50;6.20;;;;;;;11.04;100.00;101586.16;4929677;28;20197;-69
2024/03/15 03:32:44;;;;;;;10.50;6.03;;;;;;;11.14;100.00;101604.72;4950479;28;20194;-69
2024/03/15 03:35:09;;;;;;;9.30;6.03;;;;;;;11.04;100.00;101571.91;4939318;28;20253;-69
2024/03/15 03:37:35;;;;;;;15.63;5.43;;;;;;;11.25;100.00;101600.72;4951611;28;20198;-69
2024/03/15 03:40:01;;;;;;;9.23;6.27;;;;;;;11.10;100.00;101557.75;4953781;28;20248;-69
2024/03/15 03:42:27;;;;;;;9.40;6.13;;;;;;;10.35;100.00;101451.34;4950769;28;20218;-69
2024/03/15 03:44:57;;;;;;;11.80;5.90;;;;;;;11.37;100.00;101623.44;4951971;28;20658;-69
2024/03/15 03:47:23;;;;;;;11.27;6.37;;;;;;;10.76;100.00;101508.13;4951485;28;20442;-69
2024/03/15 03:49:52;;;;;;;10.03;6.10;;;;;;;11.04;100.00;101526.28;4952340;28;20465;-69
2024/03/15 03:52:18;;;;;;;8.60;5.40;;;;;;;11.12;100.00;101536.09;4949212;28;20203;-69
2024/03/15 03:54:43;;;;;;;9.63;6.07;;;;;;;11.29;100.00;101565.25;4952335;28;20477;-69
2024/03/15 03:57:21;;;;;;;11.23;6.00;;;;;;;11.30;100.00;101525.81;4938686;28;20563;-69
2024/03/15 03:59:50;;;;;;;12.43;6.93;;;;;;;11.20;100.00;101504.63;4950851;28;20249;-69
2024/03/15 04:02:15;;;;;;;9.50;6.40;;;;;;;11.21;100.00;101489.34;4950368;28;20836;-68
2024/03/15 04:04:42;;;;;;;11.83;6.93;;;;;;;11.07;100.00;101440.00;4951745;28;20449;-69
2024/03/15 04:07:09;;;;;;;10.90;6.37;;;;;;;10.80;100.00;101390.53;4948109;28;20543;-69
2024/03/15 04:09:38;;;;;;;10.63;6.30;;;;;;;10.88;100.00;101358.22;4935051;28;21553;-69
2024/03/15 04:12:04;;;;;;;10.60;7.00;;;;;;;10.88;100.00;101328.69;4950658;28;20533;-69
2024/03/15 04:14:30;;;;;;;11.10;7.03;;;;;;;11.19;100.00;101359.78;4954181;28;20874;-69
2024/03/15 04:16:55;;;;;;;11.00;6.57;;;;;;;10.80;100.00;101301.97;4951165;28;20453;-69
2024/03/15 04:19:24;;;;;;;13.37;6.63;;;;;;;10.67;100.00;101264.25;4952980;28;23314;-69
2024/03/15 04:21:51;;;;;;;11.80;7.30;;;;;;;10.79;100.00;101274.31;4933980;28;20261;-69
2024/03/15 04:24:17;;;;;;;13.20;6.67;;;;;;;10.83;100.00;101272.06;4950886;28;20961;-69
2024/03/15 04:26:42;;;;;;;14.70;7.60;;;;;;;10.43;100.00;101195.69;4953206;28;20482;-69
2024/03/15 04:29:08;;;;;;;12.17;7.10;;;;;;;10.67;100.00;101179.22;4936156;28;20450;-69
2024/03/15 04:31:33;;;;;;;10.60;6.33;;;;;;;11.03;100.00;101223.97;4934873;28;20214;-68
2024/03/15 04:34:01;;;;;;;10.70;7.10;;;;;;;10.67;100.00;101170.34;4935087;28;20226;-68
2024/03/15 04:36:30;;;;;;;11.27;7.00;;;;;;;10.75;100.00;101164.84;4948699;28;20186;-69
2024/03/15 04:38:56;;;;;;;11.83;7.80;;;;;;;10.74;100.00;101139.88;4948152;28;20430;-68
2024/03/15 04:41:22;;;;;;;13.17;6.80;;;;;;;10.93;100.00;101150.97;4947823;28;21273;-69
2024/03/15 04:43:49;;;;;;;12.10;6.80;;;;;;;10.87;100.00;101106.97;4952452;28;20453;-68
2024/03/15 04:46:16;;;;;;;11.03;6.90;;;;;;;10.30;100.00;100980.03;4952149;28;20450;-68
2024/03/15 04:48:43;;;;;;;13.10;6.77;;;;;;;10.80;100.00;101066.66;4935412;28;20912;-68
2024/03/15 04:51:08;;;;;;;15.23;7.80;;;;;;;10.72;100.00;101039.97;4949383;28;20962;-68
2024/03/15 04:53:34;;;;;;;14.67;7.70;;;;;;;10.61;100.00;100989.53;4956166;28;20456;-68
2024/03/15 04:55:59;;;;;;;12.87;8.77;;;;;;;10.34;100.00;100941.06;4951430;28;20215;-69
2024/03/15 04:58:28;;;;;;;12.10;7.80;;;;;;;10.92;100.00;101001.72;4948435;28;20199;-69
2024/03/15 05:00:54;;;;;;;15.50;9.30;;;;;;;10.50;100.00;100917.66;4950903;28;20371;-68
2024/03/15 05:03:19;;;;;;;11.90;8.23;;;;;;;10.02;100.00;100832.56;4947059;28;21418;-69
2024/03/15 05:05:45;;;;;;;15.03;8.20;;;;;;;10.98;100.00;100968.72;4933047;28;20191;-68
2024/03/15 05:08:10;;;;;;;14.47;8.30;;;;;;;10.76;100.00;100919.69;4953897;28;20215;-68
2024/03/15 05:10:36;;;;;;;14.80;9.50;;;;;;;10.76;100.00;100906.25;4948562;28;20222;-68
2024/03/15 05:13:02;;;;;;;13.90;8.03;;;;;;;10.66;100.00;100877.13;4951820;28;20509;-68
2024/03/15 05:15:28;;;;;;;14.60;8.07;;;;;;;10.93;100.00;100904.91;4938441;28;20956;-68
2024/03/15 05:17:55;;;;;;;12.43;8.47;;;;;;;10.94;100.00;100877.06;4930217;28;20199;-68
2024/03/15 05:20:21;;;;;;;11.73;7.80;;;;;;;10.60;100.00;100810.88;4953830;28;20234;-68
2024/03/15 05:22:46;;;;;;;15.50;8.60;;;;;;;10.98;100.00;100856.81;4932970;28;20537;-68
2024/03/15 05:25:14;;;;;;;14.90;8.90;;;;;;;11.06;100.00;100839.72;4949028;28;20536;-68
2024/03/15 05:27:40;;;;;;;15.60;8.83;;;;;;;10.89;100.00;100814.28;4954040;28;20207;-68
2024/03/15 05:30:07;;;;;;;16.47;8.50;;;;;;;10.92;100.00;100779.00;4950696;28;20430;-68
2024/03/15 05:32:33;;;;;;;13.57;8.03;;;;;;;11.08;100.00;100806.28;4950563;28;23170;-69
2024/03/15 05:34:59;;;;;;;15.80;9.60;;;;;;;10.91;100.00;100783.53;4947393;28;20474;-69
2024/03/15 05:37:26;;;;;;;16.63;11.17;;;;;;;10.57;100.00;100725.44;4954066;28;20191;-69
2024/03/15 05:39:52;;;;;;;15.50;9.97;;;;;;;10.08;100.00;100648.72;4952527;28;20448;-69
2024/03/15 05:42:17;;;;;;;18.60;10.70;;;;;;;10.70;100.00;100760.34;4950853;28;20835;-69
2024/03/15 05:44:45;;;;;;;16.70;9.73;;;;;;;10.47;100.00;100727.66;4950993;28;20305;-69
2024/03/15 05:47:12;;;;;;;20.03;9.93;;;;;;;10.90;100.00;100813.25;4950911;28;20190;-69
2024/03/15 05:49:40;;;;;;;16.33;10.60;;;;;;;10.54;100.00;100779.47;4954124;28;20445;-69
2024/03/15 05:52:10;;;;;;;17.60;11.43;;;;;;;10.69;100.00;100830.28;4963195;28;20553;-68
2024/03/15 05:54:39;;;;;;;24.20;13.03;;;;;;;9.90;100.00;100724.28;4960555;28;20481;-69
2024/03/15 05:57:06;;;;;;;17.43;10.73;;;;;;;10.29;100.00;100809.47;4958879;28;20529;-69
2024/03/15 05:59:32;;;;;;;18.97;11.27;;;;;;;10.43;100.00;100831.81;4954622;28;20454;-69
2024/03/15 06:01:58;;;;;;;20.80;11.60;;;;;;;10.65;100.00;100863.91;4947618;28;20478;-69
2024/03/15 06:04:23;;;;;;;17.53;10.20;;;;;;;10.50;100.00;100840.75;4954021;28;20990;-68
2024/03/15 06:06:49;;;;;;;18.30;11.10;;;;;;;10.19;100.00;100790.22;4948540;28;20197;-68
2024/03/15 06:09:15;;;;;;;18.13;10.83;;;;;;;10.00;100.00;100748.84;4945196;28;20568;-69
2024/03/15 06:11:40;;;;;;;16.57;10.30;;;;;;;10.59;100.00;100850.28;4947007;28;20206;-68
2024/03/15 06:14:07;;;;;;;15.40;11.10;;;;;;;10.06;100.00;100740.00;4953082;28;20477;-68
2024/03/15 06:16:36;;;;;;;15.93;10.60;;;;;;;9.62;100.00;100676.09;4925844;28;20191;-69
2024/03/15 06:19:04;;;;;;;17.70;10.80;;;;;;;10.09;100.00;100750.34;4927925;28;20535;-69
2024/03/15 06:21:31;;;;;;;20.43;10.67;;;;;;;10.06;100.00;100723.13;4948796;28;20461;-69
2024/03/15 06:23:56;;;;;;;15.37;10.63;;;;;;;10.65;100.00;100759.31;4953887;28;20446;-69
2024/03/15 06:26:24;;;;;;;14.60;9.93;;;;;;;10.35;100.00;100741.63;4934768;28;20450;-69
2024/03/15 06:28:53;;;;;;;14.57;9.77;;;;;;;10.49;100.00;100766.66;4946973;28;20194;-69
2024/03/15 06:31:19;;;;;;;17.30;10.50;;;;;;;10.34;100.00;100753.41;4933154;28;20493;-68
2024/03/15 06:33:44;;;;;;;16.13;10.57;;;;;;;10.56;100.00;100758.66;4930381;28;20544;-69
2024/03/15 06:36:16;;;;;;;17.30;10.80;;;;;;;9.95;100.00;100665.53;4945730;28;20198;-69
2024/03/15 06:41:19;;;;;;;18.50;11.33;;;;;;;10.67;100.00;100750.00;4947638;28;20846;-69
2024/03/15 06:44:45;;;;;;;23.20;12.20;;;;;;;10.35;100.00;100693.38;4945032;28;20960;-69
2024/03/15 06:46:53;;;;;;;18.00;11.90;;;;;;;10.26;100.00;100710.63;4942231;28;20453;-69
2024/03/15 06:49:24;;;;;;;15.90;10.97;;;;;;;10.76;100.00;100715.78;4938544;28;20464;-69
2024/03/15 06:54:35;;;;;;;21.70;12.80;;;;;;;10.78;100.00;100717.22;4943494;28;20593;-69
2024/03/15 06:57:01;;;;;;;18.30;12.20;;;;;;;10.66;100.00;100688.53;4947376;28;20446;-69
2024/03/15 06:59:26;;;;;;;15.67;11.73;;;;;;;10.82;100.00;100706.94;4945253;28;20186;-69
2024/03/15 07:01:52;;;;;;;25.90;12.93;;;;;;;10.49;100.00;100643.31;4926919;28;20210;-69
2024/03/15 07:04:18;;;;;;;15.53;12.00;;;;;;;10.60;100.00;100652.63;4948427;28;20642;-69
2024/03/15 07:06:44;;;;;;;18.00;12.20;;;;;;;10.65;100.00;100654.69;4949812;28;20444;-69
2024/03/15 07:09:17;;;;;;;17.50;12.30;;;;;;;10.96;100.00;100707.75;4945664;28;20441;-70
2024/03/15 07:11:47;;;;;;;20.53;14.10;;;;;;;10.86;100.00;100671.44;4932520;28;20470;-69
2024/03/15 07:14:13;;;;;;;17.67;12.37;;;;;;;10.55;100.00;100604.94;4951576;28;20462;-69
2024/03/15 07:16:38;;;;;;;19.47;13.80;;;;;;;10.63;100.00;100609.28;4949125;28;20466;-69
2024/03/15 07:19:05;;;;;;;19.13;14.33;;;;;;;11.01;100.00;100660.50;4933645;28;20198;-69
2024/03/15 07:21:34;;;;;;;18.70;13.50;;;;;;;11.01;100.00;100655.13;4945664;28;20210;-69
2024/03/15 07:24:00;;;;;;;17.17;12.57;;;;;;;10.65;100.00;100595.69;4947231;28;20445;-69
2024/03/15 07:26:26;;;;;;;16.60;12.83;;;;;;;11.04;100.00;100643.97;4947180;28;20513;-69
2024/03/15 07:28:51;;;;;;;17.00;13.40;;;;;;;10.97;100.00;100639.66;4949125;28;20948;-69
2024/03/15 07:31:18;;;;;;;20.40;13.60;;;;;;;10.90;100.00;100620.03;4947730;28;20901;-69
2024/03/15 07:33:44;;;;;;;20.23;12.37;;;;;;;10.06;100.00;100481.94;4943286;28;20637;-69
2024/03/15 07:36:13;;;;;;;19.57;13.50;;;;;;;10.79;100.00;100576.72;4977189;23;20613;-70
2024/03/15 07:38:42;;;;;;;21.03;14.63;;;;;;;11.25;100.00;100634.91;4967406;28;20182;-70
2024/03/15 07:41:11;;;;;;;21.03;14.57;;;;;;;11.09;100.00;100592.38;4967327;28;20446;-70
2024/03/15 07:43:36;;;;;;;17.70;12.70;;;;;;;11.15;100.00;100601.44;4948584;28;20445;-70
2024/03/15 07:46:02;;;;;;;24.50;15.03;;;;;;;11.24;100.00;100616.31;4964674;28;20460;-67
2024/03/15 07:48:28;;;;;;;18.93;13.50;;;;;;;11.15;100.00;100590.72;4941994;28;20201;-68
2024/03/15 07:50:53;;;;;;;22.73;13.20;;;;;;;11.29;100.00;100614.66;4957271;28;20283;-68
2024/03/15 07:53:21;;;;;;;18.07;13.10;;;;;;;11.18;100.00;100598.34;4961205;28;20644;-69
2024/03/15 07:55:47;;;;;;;19.90;13.67;;;;;;;11.17;100.00;100600.22;4967207;28;20214;-68
2024/03/15 07:58:12;;;;;;;21.27;15.30;;;;;;;11.24;100.00;100600.19;4962869;28;20996;-68
2024/03/15 08:00:38;;;;;;;21.20;13.30;;;;;;;11.35;100.00;100621.03;4945663;28;20551;-68
2024/03/15 08:03:04;;;;;;;19.43;15.37;;;;;;;11.00;100.00;100559.56;4963158;28;20193;-69
2024/03/15 08:05:29;;;;;;;18.20;14.73;;;;;;;11.40;100.00;100615.03;4958775;28;20451;-68
2024/03/15 08:07:56;;;;;;;19.70;14.73;;;;;;;11.37;100.00;100610.06;4961826;28;20637;-68
2024/03/15 08:10:24;;;;;;;17.20;12.90;;;;;;;10.99;100.00;100575.84;4944829;28;20331;-68
2024/03/15 08:12:50;;;;;;;19.70;14.70;;;;;;;11.43;100.00;100623.50;4961369;28;20445;-68
2024/03/15 08:15:15;;;;;;;21.10;15.03;;;;;;;11.52;100.00;100624.13;4962812;28;20900;-68
2024/03/15 08:17:45;;;;;;;21.57;14.47;;;;;;;11.57;100.00;100591.22;4963874;28;20444;-68
2024/03/15 08:20:10;;;;;;;22.50;14.77;;;;;;;11.50;100.00;100577.84;4949623;28;20181;-69
2024/03/15 08:22:39;;;;;;;22.63;14.30;;;;;;;11.54;100.00;100539.59;4964905;28;20456;-69
2024/03/15 08:25:06;;;;;;;18.30;13.10;;;;;;;11.29;100.00;100503.75;4968777;28;20620;-69
2024/03/15 08:27:33;;;;;;;18.33;12.43;;;;;;;11.42;100.00;100490.25;4964804;28;20438;-68
2024/03/15 08:30:00;;;;;;;18.27;14.50;;;;;;;11.33;100.00;100472.72;4967577;28;20467;-69
2024/03/15 08:32:27;;;;;;;18.77;13.87;;;;;;;11.25;100.00;100484.56;4951413;28;20467;-69
2024/03/15 08:34:53;;;;;;;21.50;14.53;;;;;;;11.46;100.00;100493.34;4963786;28;20461;-69
2024/03/15 08:37:18;;;;;;;19.30;14.00;;;;;;;11.50;100.00;100489.19;4967523;28;20447;-69
2024/03/15 08:39:44;;;;;;;17.10;13.50;;;;;;;11.22;100.00;100466.16;4951442;28;20599;-69
2024/03/15 08:42:11;;;;;;;17.27;14.00;;;;;;;11.53;100.00;100529.88;4966776;28;20440;-69
2024/03/15 08:44:38;;;;;;;19.80;14.50;;;;;;;11.68;100.00;100561.84;4966946;28;20181;-69
2024/03/15 08:47:05;;;;;;;17.63;13.63;;;;;;;11.56;100.00;100515.19;4966384;28;20888;-69
2024/03/15 08:49:31;;;;;;;17.80;14.20;;;;;;;11.26;100.00;100458.53;4967969;28;20448;-69
2024/03/15 08:51:56;;;;;;;19.50;14.37;;;;;;;11.32;100.00;100479.97;4961904;28;20476;-70
2024/03/15 08:54:22;;;;;;;19.83;13.70;;;;;;;11.73;100.00;100562.03;4967298;28;20229;-69
2024/03/15 08:56:47;;;;;;;17.57;12.57;;;;;;;11.70;100.00;100551.72;4966758;28;20198;-69
2024/03/15 08:59:13;;;;;;;18.43;14.17;;;;;;;11.48;100.00;100532.38;4964394;28;20196;-69
2024/03/15 09:01:38;;;;;;;19.40;14.60;;;;;;;11.70;100.00;100567.84;4960936;28;20241;-69
2024/03/15 09:04:04;;;;;;;17.57;13.23;;;;;;;11.82;100.00;100578.75;4968930;28;20186;-69
2024/03/15 09:06:33;;;;;;;20.47;13.60;;;;;;;11.43;100.00;100524.16;4964624;28;20576;-69
2024/03/15 09:09:07;;;;;;;18.00;13.27;;;;;;;11.92;100.00;100581.84;4963790;28;20436;-67
2024/03/15 09:11:32;;;;;;;16.90;12.93;;;;;;;11.84;100.00;100613.47;4964311;28;20542;-68
2024/03/15 09:13:58;;;;;;;16.90;12.50;;;;;;;11.91;100.00;100647.38;4970514;28;20852;-68
2024/03/15 09:16:23;;;;;;;19.63;12.37;;;;;;;11.87;100.00;100632.72;4969086;28;20189;-68
2024/03/15 09:18:49;;;;;;;14.70;10.80;;;;;;;11.99;100.00;100630.19;4961221;28;20269;-68
2024/03/15 09:21:14;;;;;;;15.47;10.70;;;;;;;12.03;100.00;100617.16;4964480;28;20544;-68
2024/03/15 09:23:41;;;;;;;16.10;12.20;;;;;;;11.86;100.00;100587.22;4972524;28;20810;-68
2024/03/15 09:26:06;;;;;;;17.90;10.50;;;;;;;11.98;100.00;100618.63;4969992;28;20193;-68
2024/03/15 09:28:37;;;;;;;15.20;10.83;;;;;;;12.17;100.00;100656.38;4954696;28;20445;-69
2024/03/15 09:31:08;;;;;;;16.60;10.77;;;;;;;12.10;100.00;100663.66;4972102;28;20596;-69
2024/03/15 09:33:35;;;;;;;14.37;10.43;;;;;;;11.99;100.00;100646.31;4968081;28;20432;-68
2024/03/15 09:36:02;;;;;;;13.90;9.07;;;;;;;11.82;100.00;100634.34;4950258;28;25755;-69
2024/03/15 09:38:28;;;;;;;18.50;9.40;;;;;;;11.84;100.00;100651.09;4970939;28;21019;-69
2024/03/15 09:40:59;;;;;;;15.67;9.60;;;;;;;11.89;100.00;100668.28;4966230;28;21130;-67
2024/03/15 09:43:33;;;;;;;16.90;8.90;;;;;;;11.82;100.00;100666.59;4966016;28;20210;-68
2024/03/15 09:46:01;;;;;;;15.47;9.17;;;;;;;12.07;100.00;100740.19;4974923;28;20433;-69
2024/03/15 09:48:28;;;;;;;15.53;8.63;;;;;;;12.05;100.00;100726.13;4958883;28;20595;-68
2024/03/15 09:50:56;;;;;;;15.40;8.27;;;;;;;12.05;100.00;100792.50;4975789;28;20468;-68
2024/03/15 09:53:21;;;;;;;13.27;8.17;;;;;;;11.80;100.00;100763.53;4951412;28;20964;-68
2024/03/15 09:55:52;;;;;;;13.33;9.00;;;;;;;11.54;100.00;100726.78;4964107;28;20469;-68
2024/03/15 09:58:20;;;;;;;12.77;7.53;;;;;;;12.04;100.00;100804.31;4968110;28;20194;-68
2024/03/15 10:00:47;;;;;;;10.23;6.60;;;;;;;11.77;100.00;100762.13;4963235;28;20552;-68
2024/03/15 10:03:13;;;;;;;13.07;7.57;;;;;;;11.98;100.00;100800.59;4960603;28;20467;-68
2024/03/15 10:05:38;;;;;;;15.63;7.77;;;;;;;12.04;100.00;100799.75;4962039;28;20583;-68
2024/03/15 10:08:05;;;;;;;11.50;7.23;;;;;;;12.06;100.00;100813.78;4965086;28;20449;-68
2024/03/15 10:10:31;;;;;;;12.70;6.80;;;;;;;12.08;100.00;100811.72;4964113;28;26553;-68
2024/03/15 10:12:58;;;;;;;10.83;6.63;;;;;;;12.10;100.00;100823.09;4958383;28;21149;-68
2024/03/15 10:15:23;;;;;;;16.50;6.90;;;;;;;12.06;100.00;100821.84;4960917;28;20856;-68
2024/03/15 10:17:53;;;;;;;15.20;7.53;;;;;;;12.16;100.00;100840.25;4962049;28;20451;-68
2024/03/15 10:20:24;;;;;;;11.57;7.03;;;;;;;12.15;100.00;100826.00;4960815;28;20272;-68
2024/03/15 10:22:55;;;;;;;13.63;7.00;;;;;;;12.23;100.00;100845.63;4966055;28;20475;-68
2024/03/15 10:25:24;;;;;;;13.10;6.80;;;;;;;12.16;100.00;100835.72;4968715;28;20450;-68
2024/03/15 10:27:50;;;;;;;13.10;6.40;;;;;;;12.26;100.00;100859.47;4949641;28;20436;-68
2024/03/15 10:30:22;;;;;;;11.40;6.50;;;;;;;12.31;100.00;100866.91;4966513;28;20448;-68
2024/03/15 10:32:49;;;;;;;11.27;6.00;;;;;;;12.34;100.00;100875.38;4960727;28;21076;-68
2024/03/15 10:35:15;;;;;;;14.43;6.47;;;;;;;12.43;100.00;100894.81;4949145;28;20477;-68
2024/03/15 10:37:45;;;;;;;18.50;7.47;;;;;;;12.26;100.00;100872.09;4963734;28;20441;-68
2024/03/15 10:40:21;;;;;;;10.67;6.00;;;;;;;12.28;100.00;100870.84;4967869;28;20476;-68
2024/03/15 10:42:51;;;;;;;10.90;5.90;;;;;;;12.55;100.00;100903.09;4965737;28;20956;-68
2024/03/15 10:45:21;;;;;;;11.80;5.90;;;;;;;12.56;100.00;100927.09;4962262;28;20437;-69
2024/03/15 10:47:47;;;;;;;10.93;6.07;;;;;;;12.39;100.00;100907.88;4964651;28;20475;-68
2024/03/15 10:50:18;;;;;;;14.90;6.37;;;;;;;12.57;100.00;100941.38;4966845;28;20485;-68
2024/03/15 10:52:48;;;;;;;17.43;5.73;;;;;;;12.09;100.00;100863.63;4946916;28;20194;-69
2024/03/15 10:55:18;;;;;;;11.10;5.60;;;;;;;12.68;100.00;100938.03;4954992;28;21015;-68
2024/03/15 10:57:44;;;;;;;15.47;6.10;;;;;;;12.68;100.00;100950.69;4948680;28;20520;-68
2024/03/15 11:00:24;;;;;;;12.30;5.23;;;;;;;12.65;100.00;100957.31;4965202;28;20453;-68
2024/03/15 11:02:53;;;;;;;16.57;5.60;;;;;;;12.50;100.00;100933.31;4965014;28;20480;-68
2024/03/15 11:05:23;;;;;;;12.97;5.73;;;;;;;12.43;100.00;100933.31;4960848;28;20442;-68
2024/03/15 11:08:01;;;;;;;11.03;5.17;;;;;;;12.66;100.00;100991.25;4957984;28;20459;-68
2024/03/15 11:10:27;;;;;;;11.60;4.60;;;;;;;11.93;100.00;100881.00;4963697;28;20990;-68